sensor_id;sensor_type;location;lat;lon;timestamp;pressure;altitude;pressure_sealevel;temperature;humidity
28701;BME280;15877;52.344;16.790;2022-07-29T00:01:15;101072.50;;;19.70;50.86
28701;BME280;15877;52.344;16.790;2022-07-29T00:03:49;101072.67;;;19.67;50.85
28701;BME280;15877;52.344;16.790;2022-07-29T00:06:21;101078.88;;;19.64;51.26
28701;BME280;15877;52.344;16.790;2022-07-29T00:08:53;101077.36;;;19.61;51.43
28701;BME280;15877;52.344;16.790;2022-07-29T00:11:26;101081.34;;;19.56;51.05
28701;BME280;15877;52.344;16.790;2022-07-29T00:13:58;101083.13;;;19.53;51.15
28701;BME280;15877;52.344;16.790;2022-07-29T00:16:30;101078.96;;;19.47;51.71
28701;BME280;15877;52.344;16.790;2022-07-29T00:19:03;101076.08;;;19.44;51.13
28701;BME280;15877;52.344;16.790;2022-07-29T00:21:38;101079.55;;;19.40;51.04
28701;BME280;15877;52.344;16.790;2022-07-29T00:24:10;101079.00;;;19.36;50.47
28701;BME280;15877;52.344;16.790;2022-07-29T00:26:43;101081.68;;;19.31;51.04
28701;BME280;15877;52.344;16.790;2022-07-29T00:29:15;101082.48;;;19.29;51.08
28701;BME280;15877;52.344;16.790;2022-07-29T00:32:04;101076.74;;;19.26;50.57
28701;BME280;15877;52.344;16.790;2022-07-29T00:34:37;101073.94;;;19.23;50.88
28701;BME280;15877;52.344;16.790;2022-07-29T00:37:27;101081.04;;;19.17;50.88
28701;BME280;15877;52.344;16.790;2022-07-29T00:39:59;101084.02;;;19.14;50.96
28701;BME280;15877;52.344;16.790;2022-07-29T00:42:31;101081.39;;;19.11;50.95
28701;BME280;15877;52.344;16.790;2022-07-29T00:45:15;101080.02;;;19.06;51.64
28701;BME280;15877;52.344;16.790;2022-07-29T00:47:46;101080.91;;;19.01;51.74
28701;BME280;15877;52.344;16.790;2022-07-29T00:50:20;101077.79;;;19.00;51.69
28701;BME280;15877;52.344;16.790;2022-07-29T00:52:54;101076.74;;;18.96;50.99
28701;BME280;15877;52.344;16.790;2022-07-29T00:55:27;101073.79;;;18.90;50.93
28701;BME280;15877;52.344;16.790;2022-07-29T00:58:01;101077.02;;;18.83;51.07
28701;BME280;15877;52.344;16.790;2022-07-29T01:00:33;101082.65;;;18.79;51.05
28701;BME280;15877;52.344;16.790;2022-07-29T01:03:07;101073.48;;;18.70;51.55
28701;BME280;15877;52.344;16.790;2022-07-29T01:05:41;101084.58;;;18.70;52.35
28701;BME280;15877;52.344;16.790;2022-07-29T01:08:21;101083.45;;;18.67;52.10
28701;BME280;15877;52.344;16.790;2022-07-29T01:10:56;101079.77;;;18.63;51.77
28701;BME280;15877;52.344;16.790;2022-07-29T01:13:29;101076.95;;;18.59;52.43
28701;BME280;15877;52.344;16.790;2022-07-29T01:16:07;101071.96;;;18.55;52.05
28701;BME280;15877;52.344;16.790;2022-07-29T01:18:46;101075.35;;;18.54;52.52
28701;BME280;15877;52.344;16.790;2022-07-29T01:21:38;101072.45;;;18.49;52.50
28701;BME280;15877;52.344;16.790;2022-07-29T01:24:30;101071.41;;;18.46;52.25
28701;BME280;15877;52.344;16.790;2022-07-29T01:27:15;101062.32;;;18.36;52.39
28701;BME280;15877;52.344;16.790;2022-07-29T01:29:57;101076.23;;;18.43;52.68
28701;BME280;15877;52.344;16.790;2022-07-29T01:32:36;101077.66;;;18.40;53.20
28701;BME280;15877;52.344;16.790;2022-07-29T01:35:15;101064.86;;;18.28;52.97
28701;BME280;15877;52.344;16.790;2022-07-29T01:37:55;101073.55;;;18.31;52.73
28701;BME280;15877;52.344;16.790;2022-07-29T01:40:31;101068.30;;;18.26;52.70
28701;BME280;15877;52.344;16.790;2022-07-29T01:43:11;101061.00;;;18.26;52.82
28701;BME280;15877;52.344;16.790;2022-07-29T01:45:46;101055.13;;;18.22;53.20
28701;BME280;15877;52.344;16.790;2022-07-29T01:48:23;101038.89;;;18.14;53.10
28701;BME280;15877;52.344;16.790;2022-07-29T01:50:58;101022.41;;;18.05;53.46
28701;BME280;15877;52.344;16.790;2022-07-29T01:53:37;101055.61;;;18.20;53.92
28701;BME280;15877;52.344;16.790;2022-07-29T01:56:12;101053.84;;;18.17;53.95
28701;BME280;15877;52.344;16.790;2022-07-29T01:58:46;101056.65;;;18.17;54.22
28701;BME280;15877;52.344;16.790;2022-07-29T02:01:20;101057.95;;;18.19;54.63
28701;BME280;15877;52.344;16.790;2022-07-29T02:03:54;101061.16;;;18.19;54.74
28701;BME280;15877;52.344;16.790;2022-07-29T02:06:31;101055.13;;;18.20;55.37
28701;BME280;15877;52.344;16.790;2022-07-29T02:09:06;101049.98;;;18.20;55.57
28701;BME280;15877;52.344;16.790;2022-07-29T02:11:39;101044.35;;;18.21;55.41
28701;BME280;15877;52.344;16.790;2022-07-29T02:14:13;101040.25;;;18.20;55.36
28701;BME280;15877;52.344;16.790;2022-07-29T02:16:51;101038.73;;;18.20;55.72
28701;BME280;15877;52.344;16.790;2022-07-29T02:19:26;101032.63;;;18.22;56.15
28701;BME280;15877;52.344;16.790;2022-07-29T02:22:01;101029.25;;;18.24;56.43
28701;BME280;15877;52.344;16.790;2022-07-29T02:24:36;101032.95;;;18.24;56.82
28701;BME280;15877;52.344;16.790;2022-07-29T02:27:09;101033.20;;;18.27;56.65
28701;BME280;15877;52.344;16.790;2022-07-29T02:29:43;101017.29;;;18.19;56.90
28701;BME280;15877;52.344;16.790;2022-07-29T02:32:18;101031.51;;;18.31;57.03
28701;BME280;15877;52.344;16.790;2022-07-29T02:34:55;101028.70;;;18.33;57.52
28701;BME280;15877;52.344;16.790;2022-07-29T02:37:28;101021.86;;;18.25;57.42
28701;BME280;15877;52.344;16.790;2022-07-29T02:40:03;101033.99;;;18.35;57.66
28701;BME280;15877;52.344;16.790;2022-07-29T02:42:37;101036.17;;;18.37;57.54
28701;BME280;15877;52.344;16.790;2022-07-29T02:45:12;101026.84;;;18.33;58.01
28701;BME280;15877;52.344;16.790;2022-07-29T02:47:48;101034.01;;;18.40;58.06
28701;BME280;15877;52.344;16.790;2022-07-29T02:50:27;101035.47;;;18.43;58.44
28701;BME280;15877;52.344;16.790;2022-07-29T02:53:07;101029.61;;;18.43;58.58
28701;BME280;15877;52.344;16.790;2022-07-29T02:55:45;101029.36;;;18.45;58.75
28701;BME280;15877;52.344;16.790;2022-07-29T02:58:27;101027.43;;;18.47;59.10
28701;BME280;15877;52.344;16.790;2022-07-29T03:01:03;101023.73;;;18.49;59.29
28701;BME280;15877;52.344;16.790;2022-07-29T03:03:37;101027.27;;;18.52;59.37
28701;BME280;15877;52.344;16.790;2022-07-29T03:06:14;101024.20;;;18.63;58.77
28701;BME280;15877;52.344;16.790;2022-07-29T03:09:07;101023.64;;;18.58;59.42
28701;BME280;15877;52.344;16.790;2022-07-29T03:11:42;101020.35;;;18.56;59.66
28701;BME280;15877;52.344;16.790;2022-07-29T03:14:23;101016.89;;;18.54;60.29
28701;BME280;15877;52.344;16.790;2022-07-29T03:16:57;101011.82;;;18.59;59.95
28701;BME280;15877;52.344;16.790;2022-07-29T03:19:30;101012.46;;;18.61;60.16
28701;BME280;15877;52.344;16.790;2022-07-29T03:22:03;101012.14;;;18.65;60.12
28701;BME280;15877;52.344;16.790;2022-07-29T03:24:37;101015.65;;;18.69;59.87
28701;BME280;15877;52.344;16.790;2022-07-29T03:27:10;101016.21;;;18.72;59.86
28701;BME280;15877;52.344;16.790;2022-07-29T03:29:44;101016.23;;;18.70;60.15
28701;BME280;15877;52.344;16.790;2022-07-29T03:32:21;101013.98;;;18.70;60.42
28701;BME280;15877;52.344;16.790;2022-07-29T03:34:56;101017.09;;;18.73;60.04
28701;BME280;15877;52.344;16.790;2022-07-29T03:37:29;101020.07;;;18.76;60.24
28701;BME280;15877;52.344;16.790;2022-07-29T03:40:05;101023.21;;;18.75;60.32
28701;BME280;15877;52.344;16.790;2022-07-29T03:42:41;101018.45;;;18.76;60.27
28701;BME280;15877;52.344;16.790;2022-07-29T03:45:17;101022.33;;;18.79;60.48
28701;BME280;15877;52.344;16.790;2022-07-29T03:47:56;101017.65;;;18.77;60.86
28701;BME280;15877;52.344;16.790;2022-07-29T03:50:32;101012.66;;;18.82;60.42
28701;BME280;15877;52.344;16.790;2022-07-29T03:53:05;101013.61;;;18.87;60.42
28701;BME280;15877;52.344;16.790;2022-07-29T03:55:41;101011.27;;;18.91;60.50
28701;BME280;15877;52.344;16.790;2022-07-29T03:58:14;101016.02;;;18.93;60.65
28701;BME280;15877;52.344;16.790;2022-07-29T04:00:48;101017.87;;;18.91;61.00
28701;BME280;15877;52.344;16.790;2022-07-29T04:03:22;101018.75;;;18.89;61.14
28701;BME280;15877;52.344;16.790;2022-07-29T04:06:05;101023.08;;;18.98;60.76
28701;BME280;15877;52.344;16.790;2022-07-29T04:08:38;101024.63;;;18.92;61.07
28701;BME280;15877;52.344;16.790;2022-07-29T04:11:12;101025.41;;;18.94;61.28
28701;BME280;15877;52.344;16.790;2022-07-29T04:13:45;101027.44;;;18.96;61.38
28701;BME280;15877;52.344;16.790;2022-07-29T04:16:20;101032.66;;;18.95;61.61
28701;BME280;15877;52.344;16.790;2022-07-29T04:18:54;101032.40;;;19.03;61.30
28701;BME280;15877;52.344;16.790;2022-07-29T04:21:26;101036.48;;;19.05;61.20
28701;BME280;15877;52.344;16.790;2022-07-29T04:24:00;101041.49;;;19.07;61.24
28701;BME280;15877;52.344;16.790;2022-07-29T04:26:34;101043.33;;;19.07;61.50
28701;BME280;15877;52.344;16.790;2022-07-29T04:29:06;101046.45;;;19.15;61.11
28701;BME280;15877;52.344;16.790;2022-07-29T04:31:39;101038.25;;;19.09;61.28
28701;BME280;15877;52.344;16.790;2022-07-29T04:34:12;101047.81;;;19.15;61.39
28701;BME280;15877;52.344;16.790;2022-07-29T04:36:45;101051.35;;;19.13;61.79
28701;BME280;15877;52.344;16.790;2022-07-29T04:39:19;101036.73;;;19.05;61.58
28701;BME280;15877;52.344;16.790;2022-07-29T04:41:53;101048.52;;;19.17;61.75
28701;BME280;15877;52.344;16.790;2022-07-29T04:44:26;101050.45;;;19.20;61.30
28701;BME280;15877;52.344;16.790;2022-07-29T04:46:59;101050.75;;;19.24;61.57
28701;BME280;15877;52.344;16.790;2022-07-29T04:49:32;101048.60;;;19.21;61.65
28701;BME280;15877;52.344;16.790;2022-07-29T04:52:05;101047.14;;;19.20;61.74
28701;BME280;15877;52.344;16.790;2022-07-29T04:54:37;101047.61;;;19.30;61.51
28701;BME280;15877;52.344;16.790;2022-07-29T04:57:10;101038.13;;;19.29;61.17
28701;BME280;15877;52.344;16.790;2022-07-29T04:59:42;101048.50;;;19.33;61.40
28701;BME280;15877;52.344;16.790;2022-07-29T05:02:18;101047.11;;;19.38;61.38
28701;BME280;15877;52.344;16.790;2022-07-29T05:04:52;101049.34;;;19.42;61.18
28701;BME280;15877;52.344;16.790;2022-07-29T05:07:24;101042.66;;;19.46;61.22
28701;BME280;15877;52.344;16.790;2022-07-29T05:09:57;101044.52;;;19.44;61.44
28701;BME280;15877;52.344;16.790;2022-07-29T05:12:29;101045.39;;;19.47;61.58
28701;BME280;15877;52.344;16.790;2022-07-29T05:15:01;101039.67;;;19.48;61.25
28701;BME280;15877;52.344;16.790;2022-07-29T05:17:33;101038.27;;;19.55;61.33
28701;BME280;15877;52.344;16.790;2022-07-29T05:20:08;101039.14;;;19.57;61.22
28701;BME280;15877;52.344;16.790;2022-07-29T05:22:40;101041.86;;;19.60;61.14
28701;BME280;15877;52.344;16.790;2022-07-29T05:25:12;101042.50;;;19.62;61.22
28701;BME280;15877;52.344;16.790;2022-07-29T05:27:45;101044.79;;;19.68;61.14
28701;BME280;15877;52.344;16.790;2022-07-29T05:30:21;101050.65;;;19.73;61.07
28701;BME280;15877;52.344;16.790;2022-07-29T05:32:54;101058.67;;;19.79;61.23
28701;BME280;15877;52.344;16.790;2022-07-29T05:35:27;101054.63;;;19.82;60.86
28701;BME280;15877;52.344;16.790;2022-07-29T05:38:00;101055.09;;;19.85;60.74
28701;BME280;15877;52.344;16.790;2022-07-29T05:40:32;101047.64;;;19.89;61.01
28701;BME280;15877;52.344;16.790;2022-07-29T05:43:05;101047.53;;;19.95;60.63
28701;BME280;15877;52.344;16.790;2022-07-29T05:45:38;101050.22;;;20.03;60.78
28701;BME280;15877;52.344;16.790;2022-07-29T05:48:20;101048.71;;;20.01;60.94
28701;BME280;15877;52.344;16.790;2022-07-29T05:50:53;101050.02;;;20.06;60.36
28701;BME280;15877;52.344;16.790;2022-07-29T05:53:25;101047.98;;;20.17;60.10
28701;BME280;15877;52.344;16.790;2022-07-29T05:55:58;101049.08;;;20.21;60.20
28701;BME280;15877;52.344;16.790;2022-07-29T05:58:30;101042.36;;;20.24;60.45
28701;BME280;15877;52.344;16.790;2022-07-29T06:01:03;101040.77;;;20.32;59.99
28701;BME280;15877;52.344;16.790;2022-07-29T06:03:35;101034.15;;;20.41;60.06
28701;BME280;15877;52.344;16.790;2022-07-29T06:06:08;101032.83;;;20.45;59.74
28701;BME280;15877;52.344;16.790;2022-07-29T06:08:41;101033.38;;;20.56;59.42
28701;BME280;15877;52.344;16.790;2022-07-29T06:11:13;101032.70;;;20.68;59.27
28701;BME280;15877;52.344;16.790;2022-07-29T06:13:46;101031.11;;;20.75;59.17
28701;BME280;15877;52.344;16.790;2022-07-29T06:16:20;101029.89;;;20.75;59.16
28701;BME280;15877;52.344;16.790;2022-07-29T06:19:00;101030.61;;;20.84;59.02
28701;BME280;15877;52.344;16.790;2022-07-29T06:21:32;101036.15;;;20.94;58.57
28701;BME280;15877;52.344;16.790;2022-07-29T06:24:08;101039.05;;;21.05;58.27
28701;BME280;15877;52.344;16.790;2022-07-29T06:26:43;101042.50;;;21.14;58.01
28701;BME280;15877;52.344;16.790;2022-07-29T06:29:15;101046.50;;;21.23;57.75
28701;BME280;15877;52.344;16.790;2022-07-29T06:31:48;101044.79;;;21.31;57.67
28701;BME280;15877;52.344;16.790;2022-07-29T06:34:20;101043.76;;;21.36;57.34
28701;BME280;15877;52.344;16.790;2022-07-29T06:36:52;101036.58;;;21.42;57.12
28701;BME280;15877;52.344;16.790;2022-07-29T06:39:25;101037.34;;;21.51;56.78
28701;BME280;15877;52.344;16.790;2022-07-29T06:41:58;101022.24;;;21.51;56.48
28701;BME280;15877;52.344;16.790;2022-07-29T06:44:31;101039.27;;;21.71;55.86
28701;BME280;15877;52.344;16.790;2022-07-29T06:47:05;101043.73;;;21.75;55.78
28701;BME280;15877;52.344;16.790;2022-07-29T06:49:38;101044.08;;;21.80;55.04
28701;BME280;15877;52.344;16.790;2022-07-29T06:52:10;101044.08;;;21.93;55.14
28701;BME280;15877;52.344;16.790;2022-07-29T06:54:43;101044.88;;;22.04;54.88
28701;BME280;15877;52.344;16.790;2022-07-29T06:57:23;101045.85;;;22.14;54.59
28701;BME280;15877;52.344;16.790;2022-07-29T07:00:22;101031.27;;;22.16;54.06
28701;BME280;15877;52.344;16.790;2022-07-29T07:02:55;101042.68;;;22.36;53.77
28701;BME280;15877;52.344;16.790;2022-07-29T07:05:27;101040.33;;;22.49;54.26
28701;BME280;15877;52.344;16.790;2022-07-29T07:08:00;101038.34;;;22.59;54.71
28701;BME280;15877;52.344;16.790;2022-07-29T07:10:33;101036.70;;;22.73;53.66
28701;BME280;15877;52.344;16.790;2022-07-29T07:13:06;101036.47;;;22.85;52.83
28701;BME280;15877;52.344;16.790;2022-07-29T07:15:38;101036.59;;;22.96;52.41
28701;BME280;15877;52.344;16.790;2022-07-29T07:18:10;101033.06;;;23.03;52.30
28701;BME280;15877;52.344;16.790;2022-07-29T07:20:44;101027.46;;;23.08;50.30
28701;BME280;15877;52.344;16.790;2022-07-29T07:23:16;101033.98;;;23.10;50.05
28701;BME280;15877;52.344;16.790;2022-07-29T07:25:50;101028.48;;;23.10;49.86
28701;BME280;15877;52.344;16.790;2022-07-29T07:28:23;101029.43;;;23.11;49.66
28701;BME280;15877;52.344;16.790;2022-07-29T07:30:55;101029.52;;;23.10;50.48
28701;BME280;15877;52.344;16.790;2022-07-29T07:33:30;101030.81;;;23.14;49.91
28701;BME280;15877;52.344;16.790;2022-07-29T07:36:03;101031.77;;;23.15;49.79
28701;BME280;15877;52.344;16.790;2022-07-29T07:38:35;101035.77;;;23.18;51.00
28701;BME280;15877;52.344;16.790;2022-07-29T07:41:08;101038.11;;;23.22;50.00
28701;BME280;15877;52.344;16.790;2022-07-29T07:43:41;101036.35;;;23.25;50.07
28701;BME280;15877;52.344;16.790;2022-07-29T07:46:14;101040.31;;;23.26;49.91
28701;BME280;15877;52.344;16.790;2022-07-29T07:48:46;101042.15;;;23.32;51.31
28701;BME280;15877;52.344;16.790;2022-07-29T07:51:19;101027.98;;;23.28;50.93
28701;BME280;15877;52.344;16.790;2022-07-29T07:53:51;101038.04;;;23.38;50.61
28701;BME280;15877;52.344;16.790;2022-07-29T07:56:24;101040.75;;;23.41;49.85
28701;BME280;15877;52.344;16.790;2022-07-29T07:59:03;101039.96;;;23.40;49.64
28701;BME280;15877;52.344;16.790;2022-07-29T08:01:35;101041.19;;;23.39;49.78
28701;BME280;15877;52.344;16.790;2022-07-29T08:04:26;101040.10;;;23.40;50.22
28701;BME280;15877;52.344;16.790;2022-07-29T08:07:00;101049.16;;;23.46;48.99
28701;BME280;15877;52.344;16.790;2022-07-29T08:09:32;101048.14;;;23.52;49.29
28701;BME280;15877;52.344;16.790;2022-07-29T08:12:07;101052.23;;;23.53;48.93
28701;BME280;15877;52.344;16.790;2022-07-29T08:14:39;101057.00;;;23.54;49.32
28701;BME280;15877;52.344;16.790;2022-07-29T08:17:12;101057.84;;;23.53;48.14
28701;BME280;15877;52.344;16.790;2022-07-29T08:19:44;101060.06;;;23.55;46.67
28701;BME280;15877;52.344;16.790;2022-07-29T08:22:19;101064.46;;;23.57;47.82
28701;BME280;15877;52.344;16.790;2022-07-29T08:24:51;101061.92;;;23.63;48.17
28701;BME280;15877;52.344;16.790;2022-07-29T08:27:25;101062.90;;;23.66;48.69
28701;BME280;15877;52.344;16.790;2022-07-29T08:30:15;101060.60;;;23.71;48.31
28701;BME280;15877;52.344;16.790;2022-07-29T08:32:48;101057.19;;;23.79;48.51
28701;BME280;15877;52.344;16.790;2022-07-29T08:35:28;101043.52;;;23.77;47.92
28701;BME280;15877;52.344;16.790;2022-07-29T08:38:05;101058.36;;;23.84;47.35
28701;BME280;15877;52.344;16.790;2022-07-29T08:40:38;101058.81;;;23.89;46.59
28701;BME280;15877;52.344;16.790;2022-07-29T08:43:11;101058.36;;;23.91;46.77
28701;BME280;15877;52.344;16.790;2022-07-29T08:45:45;101061.55;;;23.91;47.65
28701;BME280;15877;52.344;16.790;2022-07-29T08:48:22;101057.78;;;23.96;47.46
28701;BME280;15877;52.344;16.790;2022-07-29T08:50:56;101056.52;;;24.03;47.46
28701;BME280;15877;52.344;16.790;2022-07-29T08:53:30;101055.90;;;24.07;47.61
28701;BME280;15877;52.344;16.790;2022-07-29T08:56:02;101056.00;;;24.14;47.75
28701;BME280;15877;52.344;16.790;2022-07-29T08:58:35;101058.82;;;24.19;47.35
28701;BME280;15877;52.344;16.790;2022-07-29T09:01:10;101055.27;;;24.24;46.64
28701;BME280;15877;52.344;16.790;2022-07-29T09:03:45;101053.23;;;24.28;46.98
28701;BME280;15877;52.344;16.790;2022-07-29T09:06:21;101052.88;;;24.32;46.84
28701;BME280;15877;52.344;16.790;2022-07-29T09:08:59;101050.42;;;24.37;46.66
28701;BME280;15877;52.344;16.790;2022-07-29T09:11:33;101051.06;;;24.44;46.08
28701;BME280;15877;52.344;16.790;2022-07-29T09:14:06;101054.55;;;24.50;45.83
28701;BME280;15877;52.344;16.790;2022-07-29T09:16:48;101052.93;;;24.59;45.99
28701;BME280;15877;52.344;16.790;2022-07-29T09:19:26;101040.73;;;24.57;46.57
28701;BME280;15877;52.344;16.790;2022-07-29T09:22:02;101056.95;;;24.71;46.70
28701;BME280;15877;52.344;16.790;2022-07-29T09:24:41;101044.20;;;24.68;45.78
28701;BME280;15877;52.344;16.790;2022-07-29T09:27:25;101054.70;;;24.80;46.02
28701;BME280;15877;52.344;16.790;2022-07-29T09:30:01;101050.04;;;24.87;44.79
28701;BME280;15877;52.344;16.790;2022-07-29T09:32:33;101047.73;;;24.88;44.10
28701;BME280;15877;52.344;16.790;2022-07-29T09:35:19;101046.59;;;24.91;44.08
28701;BME280;15877;52.344;16.790;2022-07-29T09:37:52;101048.02;;;24.92;44.55
28701;BME280;15877;52.344;16.790;2022-07-29T09:40:26;101039.27;;;24.92;45.57
28701;BME280;15877;52.344;16.790;2022-07-29T09:43:00;101040.63;;;24.93;44.37
28701;BME280;15877;52.344;16.790;2022-07-29T09:45:42;101037.85;;;24.93;43.83
28701;BME280;15877;52.344;16.790;2022-07-29T09:48:19;101042.02;;;24.92;43.61
28701;BME280;15877;52.344;16.790;2022-07-29T09:50:54;101040.06;;;24.89;43.88
28701;BME280;15877;52.344;16.790;2022-07-29T09:53:32;101037.04;;;24.90;43.23
28701;BME280;15877;52.344;16.790;2022-07-29T09:56:06;101032.27;;;24.89;43.40
28701;BME280;15877;52.344;16.790;2022-07-29T09:58:39;101029.61;;;24.88;42.26
28701;BME280;15877;52.344;16.790;2022-07-29T10:01:11;101027.32;;;24.86;42.90
28701;BME280;15877;52.344;16.790;2022-07-29T10:03:53;101029.50;;;24.86;42.74
28701;BME280;15877;52.344;16.790;2022-07-29T10:06:26;101030.83;;;24.79;43.38
28701;BME280;15877;52.344;16.790;2022-07-29T10:09:09;101027.94;;;24.82;42.35
28701;BME280;15877;52.344;16.790;2022-07-29T10:11:42;101025.80;;;24.91;42.44
28701;BME280;15877;52.344;16.790;2022-07-29T10:14:34;101017.86;;;25.02;42.66
28701;BME280;15877;52.344;16.790;2022-07-29T10:17:08;101022.55;;;25.28;42.24
28701;BME280;15877;52.344;16.790;2022-07-29T10:19:40;101017.36;;;25.39;41.48
28701;BME280;15877;52.344;16.790;2022-07-29T10:22:15;101003.63;;;25.48;41.32
28701;BME280;15877;52.344;16.790;2022-07-29T10:25:09;101005.10;;;25.74;41.61
28701;BME280;15877;52.344;16.790;2022-07-29T10:27:40;101002.98;;;26.03;41.73
28701;BME280;15877;52.344;16.790;2022-07-29T10:30:14;101001.98;;;26.23;41.36
28701;BME280;15877;52.344;16.790;2022-07-29T10:33:14;101001.81;;;26.42;40.29
28701;BME280;15877;52.344;16.790;2022-07-29T10:35:59;100990.67;;;26.64;39.67
28701;BME280;15877;52.344;16.790;2022-07-29T10:38:54;100994.84;;;26.91;39.43
28701;BME280;15877;52.344;16.790;2022-07-29T10:41:39;100998.48;;;27.05;38.75
28701;BME280;15877;52.344;16.790;2022-07-29T10:44:18;100998.55;;;27.30;38.48
28701;BME280;15877;52.344;16.790;2022-07-29T10:46:54;100987.01;;;27.46;37.87
28701;BME280;15877;52.344;16.790;2022-07-29T10:49:28;101001.60;;;27.75;37.88
28701;BME280;15877;52.344;16.790;2022-07-29T10:52:06;101000.41;;;27.95;37.19
28701;BME280;15877;52.344;16.790;2022-07-29T10:54:50;100995.55;;;28.08;37.23
28701;BME280;15877;52.344;16.790;2022-07-29T10:57:26;101003.58;;;28.23;36.87
28701;BME280;15877;52.344;16.790;2022-07-29T11:00:32;101001.91;;;28.41;36.17
28701;BME280;15877;52.344;16.790;2022-07-29T11:03:05;100994.69;;;28.57;35.78
28701;BME280;15877;52.344;16.790;2022-07-29T11:05:55;100991.35;;;28.68;36.23
28701;BME280;15877;52.344;16.790;2022-07-29T11:08:29;100989.21;;;28.67;36.08
28701;BME280;15877;52.344;16.790;2022-07-29T11:14:14;100996.98;;;28.55;34.11
28701;BME280;15877;52.344;16.790;2022-07-29T11:17:01;100994.35;;;28.65;34.57
28701;BME280;15877;52.344;16.790;2022-07-29T11:19:36;100995.66;;;28.63;34.01
28701;BME280;15877;52.344;16.790;2022-07-29T11:22:33;100992.08;;;28.67;34.88
28701;BME280;15877;52.344;16.790;2022-07-29T11:25:16;100985.71;;;28.68;35.14
28701;BME280;15877;52.344;16.790;2022-07-29T11:28:15;100980.08;;;28.74;35.20
28701;BME280;15877;52.344;16.790;2022-07-29T11:31:11;100982.42;;;28.88;35.45
28701;BME280;15877;52.344;16.790;2022-07-29T11:33:44;100978.67;;;28.89;35.07
28701;BME280;15877;52.344;16.790;2022-07-29T11:36:37;100974.20;;;28.85;35.77
28701;BME280;15877;52.344;16.790;2022-07-29T11:39:30;100975.30;;;29.02;35.59
28701;BME280;15877;52.344;16.790;2022-07-29T11:42:43;100971.99;;;29.01;35.40
28701;BME280;15877;52.344;16.790;2022-07-29T11:45:21;100972.63;;;28.91;35.14
28701;BME280;15877;52.344;16.790;2022-07-29T11:48:19;100973.27;;;28.80;34.93
28701;BME280;15877;52.344;16.790;2022-07-29T11:51:00;100970.83;;;28.80;35.25
28701;BME280;15877;52.344;16.790;2022-07-29T11:53:48;100960.88;;;28.79;35.17
28701;BME280;15877;52.344;16.790;2022-07-29T11:56:24;100966.60;;;29.12;34.94
28701;BME280;15877;52.344;16.790;2022-07-29T11:59:04;100966.70;;;29.25;35.00
28701;BME280;15877;52.344;16.790;2022-07-29T12:01:38;100965.74;;;29.36;34.53
28701;BME280;15877;52.344;16.790;2022-07-29T12:04:51;100951.59;;;29.48;34.65
28701;BME280;15877;52.344;16.790;2022-07-29T12:07:30;100959.57;;;29.54;34.23
28701;BME280;15877;52.344;16.790;2022-07-29T12:10:07;100960.84;;;29.65;34.13
28701;BME280;15877;52.344;16.790;2022-07-29T12:12:53;100954.88;;;29.70;33.28
28701;BME280;15877;52.344;16.790;2022-07-29T12:15:26;100953.55;;;29.70;33.69
28701;BME280;15877;52.344;16.790;2022-07-29T12:18:18;100956.74;;;29.67;33.97
28701;BME280;15877;52.344;16.790;2022-07-29T12:21:15;100957.20;;;29.74;33.95
28701;BME280;15877;52.344;16.790;2022-07-29T12:23:55;100949.89;;;29.72;33.59
28701;BME280;15877;52.344;16.790;2022-07-29T12:26:50;100942.89;;;29.90;33.82
28701;BME280;15877;52.344;16.790;2022-07-29T12:29:23;100937.85;;;29.95;33.84
28701;BME280;15877;52.344;16.790;2022-07-29T12:32:08;100931.85;;;30.04;33.63
28701;BME280;15877;52.344;16.790;2022-07-29T12:34:49;100930.11;;;30.07;32.81
28701;BME280;15877;52.344;16.790;2022-07-29T12:37:22;100927.02;;;30.07;33.21
28701;BME280;15877;52.344;16.790;2022-07-29T12:40:14;100927.27;;;30.02;32.17
28701;BME280;15877;52.344;16.790;2022-07-29T12:43:08;100923.49;;;30.07;32.19
28701;BME280;15877;52.344;16.790;2022-07-29T12:45:43;100921.92;;;30.01;32.73
28701;BME280;15877;52.344;16.790;2022-07-29T12:48:16;100920.19;;;30.06;32.25
28701;BME280;15877;52.344;16.790;2022-07-29T12:50:57;100926.70;;;30.18;32.35
28701;BME280;15877;52.344;16.790;2022-07-29T12:53:31;100920.30;;;30.18;32.21
28701;BME280;15877;52.344;16.790;2022-07-29T12:56:09;100916.52;;;30.10;32.85
28701;BME280;15877;52.344;16.790;2022-07-29T12:59:23;100910.96;;;30.09;32.35
28701;BME280;15877;52.344;16.790;2022-07-29T13:01:56;100912.23;;;30.18;32.64
28701;BME280;15877;52.344;16.790;2022-07-29T13:04:32;100912.77;;;30.34;32.56
28701;BME280;15877;52.344;16.790;2022-07-29T13:07:08;100913.33;;;30.41;33.48
28701;BME280;15877;52.344;16.790;2022-07-29T13:09:45;100905.34;;;30.52;33.18
28701;BME280;15877;52.344;16.790;2022-07-29T13:12:17;100914.38;;;30.68;32.02
28701;BME280;15877;52.344;16.790;2022-07-29T13:14:51;100912.66;;;30.67;31.82
28701;BME280;15877;52.344;16.790;2022-07-29T13:17:24;100905.72;;;30.71;32.42
28701;BME280;15877;52.344;16.790;2022-07-29T13:20:08;100904.86;;;30.98;32.18
28701;BME280;15877;52.344;16.790;2022-07-29T13:22:46;100906.13;;;31.05;31.67
28701;BME280;15877;52.344;16.790;2022-07-29T13:25:27;100901.15;;;30.89;30.98
28701;BME280;15877;52.344;16.790;2022-07-29T13:28:00;100906.89;;;30.89;30.85
28701;BME280;15877;52.344;16.790;2022-07-29T13:30:32;100893.67;;;30.94;30.52
28701;BME280;15877;52.344;16.790;2022-07-29T13:33:05;100887.79;;;30.89;31.40